Currently 79°F in Hemet, California, USA
79°F
79°F / 47°F
1 mph W
0.00"
Friday, March 5, 2021 2:56 PM PST

Hemet, California Weather Summary
Last 36 Hours

Temperature Winds Hourly Humidity Dewpoint
Time Report Norm Report Norm Max Gusts Precip. Rpt. Norm Rpt. Norm Pressure
1Fri 02:56 PM  78.8°F  66°F  1 mph W  3 mph  3 mph  0.00"  15%  37%  25°F  38°F  30.06"
2Fri 02:26 PM  79.3°F  66°F  3 mph W  3 mph  5 mph  ----  16%  37%  27°F  38°F  30.07"
Fri 02:00 PM  78.3°F  66°F  1 mph SW  3 mph  8 mph  0.00"  18%  37%  30°F  38°F  30.08"
Fri 01:00 PM  76.5°F  65°F  2 mph W  3 mph  8 mph  0.00"  16%  38%  25°F  37°F  30.11"
Fri 12:00 PM  73.2°F  63°F  calm  2 mph  6 mph  0.00"  22%  40%  31°F  38°F  30.13"
Fri 11:00 AM  69.6°F  61°F  1 mph W  1 mph  6 mph  0.00"  26%  44%  32°F  38°F  30.17"
Fri 10:00 AM  65.8°F  58°F  1 mph NW  1 mph  3 mph  0.00"  28%  49%  30°F  38°F  30.18"
Fri 09:00 AM  63.5°F  55°F  calm  1 mph  3 mph  0.00"  36%  54%  35°F  38°F  30.20"
Fri 08:00 AM  57.6°F  52°F  2 mph NE  calm  3 mph  0.00"  28%  57%  23°F  37°F  30.21"
Fri 07:00 AM  51.4°F  48°F  1 mph NE  1 mph  5 mph  0.00"  34%  60%  23°F  34°F  30.21"
Fri 06:00 AM  49.6°F  48°F  2 mph E  1 mph  3 mph  0.00"  35%  60%  22°F  34°F  30.21"
Fri 05:00 AM  48.6°F  48°F  1 mph E  1 mph  3 mph  0.00"  37%  61%  22°F  34°F  30.22"
Fri 04:00 AM  48.4°F  48°F  2 mph E  1 mph  3 mph  0.00"  37%  61%  22°F  35°F  30.22"
Fri 03:00 AM  47.7°F  48°F  1 mph E  calm  3 mph  0.00"  45%  61%  26°F  35°F  30.22"
Fri 02:00 AM  47.3°F  49°F  1 mph E  1 mph  3 mph  0.00"  50%  61%  29°F  35°F  30.23"
3Fri 01:09 AM  46.6°F  49°F  1 mph NE  1 mph  3 mph  ----  58%  61%  32°F  36°F  30.24"
Fri 01:00 AM  46.8°F  49°F  1 mph NE  1 mph  3 mph  0.00"  58%  61%  32°F  36°F  30.24"
Fri 12:00 AM  48.0°F  50°F  1 mph NE  1 mph  3 mph  0.00"  59%  61%  34°F  36°F  30.27"
Thu 11:00 PM  49.3°F  50°F  calm  1 mph  3 mph  0.00"  61%  61%  36°F  37°F  30.28"
Thu 10:00 PM  49.8°F  51°F  calm  1 mph  3 mph  0.00"  64%  60%  38°F  37°F  30.29"
Thu 09:00 PM  50.4°F  52°F  calm  1 mph  3 mph  0.00"  65%  59%  39°F  37°F  30.30"
Thu 08:00 PM  52.0°F  53°F  calm  1 mph  3 mph  0.00"  63%  57%  39°F  38°F  30.29"
Thu 07:00 PM  54.7°F  55°F  calm  1 mph  2 mph  0.00"  58%  54%  40°F  38°F  30.28"
Thu 06:00 PM  60.6°F  58°F  calm  1 mph  3 mph  0.00"  47%  50%  39°F  39°F  30.27"
Thu 05:00 PM  65.7°F  62°F  1 mph SW  2 mph  6 mph  0.00"  39%  43%  39°F  39°F  30.27"
Thu 04:00 PM  65.7°F  64°F  4 mph SW  3 mph  9 mph  0.00"  41%  39%  40°F  38°F  30.27"
Thu 03:00 PM  66.4°F  65°F  3 mph SW  3 mph  7 mph  0.00"  37%  38%  38°F  38°F  30.27"
Thu 02:00 PM  64.0°F  65°F  1 mph W  3 mph  6 mph  0.00"  43%  38%  40°F  38°F  30.28"
Thu 01:00 PM  61.3°F  64°F  2 mph W  3 mph  6 mph  0.00"  52%  39%  43°F  38°F  30.30"
Thu 12:00 PM  58.3°F  62°F  2 mph SW  2 mph  7 mph  0.00"  58%  41%  43°F  38°F  30.29"
Thu 11:00 AM  54.7°F  60°F  1 mph N  1 mph  7 mph  0.00"  64%  45%  42°F  38°F  30.31"
Thu 10:00 AM  51.6°F  57°F  calm  1 mph  3 mph  0.00"  72%  50%  43°F  38°F  30.32"
Thu 09:00 AM  49.1°F  55°F  calm  1 mph  2 mph  0.00"  77%  55%  42°F  38°F  30.30"
Thu 08:00 AM  45.5°F  52°F  1 mph SE  calm  1 mph  0.00"  87%  59%  42°F  37°F  30.26"
Thu 07:00 AM  40.8°F  48°F  calm  1 mph  1 mph  0.00"  87%  62%  37°F  34°F  30.26"
Thu 06:00 AM  40.8°F  47°F  calm  1 mph  1 mph  0.00"  88%  61%  37°F  34°F  30.24"
Thu 05:00 AM  40.8°F  47°F  calm  1 mph  1 mph  0.00"  87%  62%  37°F  34°F  30.22"
Thu 04:00 AM  43.0°F  48°F  calm  1 mph  1 mph  0.00"  87%  62%  39°F  35°F  30.19"
Thu 03:00 AM  44.2°F  48°F  calm  calm  1 mph  0.01"  87%  62%  40°F  35°F  30.17"

  1. Current weather data. No green row appears if the current weather data is also the high or low for the current day.
  2. High temperature for the current day.
  3. Low temperature for the current day.

The Hemet weather pages are a service of WeatherCurrents. Hemet, California is located in the San Jacinto Valley, in western Riverside County, at the foot of the San Jacinto mountains.
Copyright ©2021  WeatherCurrents. All rights reserved. - Submit questions and comments - Privacy Policy

This page automatically refreshes every 10 minutes.